This is the latest recevied weather packets stored in our database for station/object EA1ZE. If no packets are shown the sender has not sent any weather packets the latest 10 day(s).
| Time | Temp. | Humidity | Pressure | Rain* | Wind** | Luminosity | Snow |
|---|---|---|---|---|---|---|---|
| 1777869018 | 10.56° C | 89% | 1011.1 hPa | 0 mm | - | - | - |
| 1777868111 | 10.56° C | 89% | 1011.1 hPa | 0 mm | - | - | - |
| 1777867210 | 10.56° C | 88% | 1011.1 hPa | 0 mm | - | - | - |
| 1777865410 | 10.56° C | 87% | 1011.2 hPa | 0 mm | - | - | - |
| 1777862710 | 11.11° C | 86% | 1011.4 hPa | 0 mm | - | - | - |
| 1777847441 | 12.78° C | 74% | 1011.9 hPa | 0 mm | - | - | - |
| 1777846541 | 12.78° C | 74% | 1012 hPa | 0 mm | - | - | - |
| 1777845636 | 12.78° C | 73% | 1012.1 hPa | 0 mm | - | - | - |
| 1777842936 | 13.33° C | 73% | 1011.6 hPa | 0 mm | - | - | - |
| 1777841131 | 13.33° C | 75% | 1011.4 hPa | 0 mm | - | - | - |
| 1777840234 | 13.33° C | 75% | 1011.4 hPa | 0 mm | - | - | - |
| 1777839331 | 13.89° C | 73% | 1011.2 hPa | 0 mm | - | - | - |
| 1777837532 | 14.44° C | 68% | 1010.8 hPa | 0 mm | - | - | - |
| 1777836629 | 15.56° C | 63% | 1010.4 hPa | 0 mm | - | - | - |
| 1777833928 | 17.22° C | 53% | 1009.4 hPa | 0 mm | - | - | - |
| 1777833035 | 17.78° C | 50% | 1009.2 hPa | 0 mm | - | - | - |
| 1777832143 | 18.33° C | 49% | 1009.2 hPa | 0 mm | - | - | - |
| 1777827622 | 17.78° C | 59% | 1009.1 hPa | 0 mm | - | - | - |
| 1777826722 | 18.33° C | 58% | 1009.2 hPa | 0 mm | - | - | - |
| 1777824023 | 18.89° C | 57% | 1009.1 hPa | 0 mm | - | - | - |
| 1777823139 | 18.33° C | 57% | 1009.2 hPa | 0 mm | - | - | - |
| 1777816859 | 16.11° C | 69% | 1010.7 hPa | 0 mm | - | - | - |
| 1777811511 | 15.56° C | 69% | 1011.3 hPa | 0 mm | - | - | - |
| 1777810585 | 15.56° C | 72% | 1011.5 hPa | 0 mm | - | - | - |
| 1777809684 | 16.11° C | 70% | 1011.7 hPa | 0 mm | - | - | - |
* Rain latest hour (hover to see other rain measurements)
** Current wind speed in m/s (hover to see current wind gust speed)